Time;durP1;ratioP1;P1;durP2;ratioP2;P2;SDS_P1;SDS_P2;PMS_P1;PMS_P2;Temp;Humidity;BMP_temperature;BMP_pressure;BME280_temperature;BME280_humidity;BME280_pressure;Samples;Min_cycle;Max_cycle;Signal;HPM_P1;HPM_P2
2022/11/14 00:00:31;;;;;;;58.87;33.73;;;5.30;99.90;;;;;;5010564;28;20184;-80
2022/11/14 00:03:02;;;;;;;67.23;36.97;;;5.30;1.00;;;;;;5010145;28;20277;-81
2022/11/14 00:05:28;;;;;;;61.53;35.07;;;5.90;99.90;;;;;;5009939;28;20215;-80
2022/11/14 00:07:53;;;;;;;63.27;35.60;;;5.40;99.90;;;;;;5009478;28;20176;-80
2022/11/14 00:10:20;;;;;;;61.37;35.10;;;5.40;1.00;;;;;;5011051;28;20188;-80
2022/11/14 00:12:45;;;;;;;63.07;35.27;;;5.30;1.00;;;;;;5008059;28;20264;-80
2022/11/14 00:15:12;;;;;;;57.97;34.67;;;5.30;1.00;;;;;;5008326;28;20772;-78
2022/11/14 00:17:38;;;;;;;62.53;35.77;;;5.30;1.00;;;;;;5007908;28;20179;-79
2022/11/14 00:20:06;;;;;;;60.57;35.40;;;5.30;1.00;;;;;;5009393;28;20318;-78
2022/11/14 00:22:32;;;;;;;61.77;36.20;;;5.30;1.00;;;;;;5007638;28;20784;-80
2022/11/14 00:24:58;;;;;;;59.13;34.03;;;5.30;1.00;;;;;;5007716;28;20202;-80
2022/11/14 00:27:24;;;;;;;62.47;35.03;;;5.30;99.90;;;;;;5008014;28;20831;-78
2022/11/14 00:29:50;;;;;;;57.93;34.20;;;5.20;1.00;;;;;;5007766;28;20271;-78
2022/11/14 00:32:16;;;;;;;64.30;37.20;;;5.30;1.00;;;;;;5010830;28;20207;-79
2022/11/14 00:34:41;;;;;;;58.93;34.00;;;5.30;1.00;;;;;;5009078;28;20211;-78
2022/11/14 00:37:07;;;;;;;63.30;35.13;;;5.20;1.00;;;;;;5009272;28;20703;-77
2022/11/14 00:39:33;;;;;;;65.17;36.20;;;5.20;1.00;;;;;;5008718;28;20183;-78
2022/11/14 00:41:59;;;;;;;64.43;35.47;;;5.20;1.00;;;;;;5007606;28;20200;-79
2022/11/14 00:44:24;;;;;;;63.30;35.67;;;5.20;81.20;;;;;;5008414;28;20829;-78
2022/11/14 00:46:50;;;;;;;60.83;33.97;;;5.30;99.90;;;;;;5007350;28;20317;-79
2022/11/14 00:49:15;;;;;;;65.10;35.60;;;5.20;99.90;;;;;;5007315;28;20171;-79
2022/11/14 00:51:42;;;;;;;66.10;36.73;;;5.20;99.90;;;;;;5008315;28;20880;-79
2022/11/14 00:54:07;;;;;;;66.37;35.27;;;5.10;99.90;;;;;;5008243;28;20175;-79
2022/11/14 00:56:33;;;;;;;63.37;35.97;;;5.10;99.90;;;;;;5007626;28;20273;-79
2022/11/14 00:58:59;;;;;;;66.63;36.90;;;5.10;1.00;;;;;;5009226;28;20278;-78
2022/11/14 01:01:25;;;;;;;60.53;34.00;;;5.10;1.00;;;;;;5008407;28;20294;-80
2022/11/14 01:03:51;;;;;;;60.00;35.77;;;5.10;1.00;;;;;;5008656;28;20191;-78
2022/11/14 01:06:18;;;;;;;60.10;34.30;;;5.20;99.90;;;;;;5008137;28;20211;-78
2022/11/14 01:08:44;;;;;;;59.77;34.90;;;5.00;1.00;;;;;;5008563;28;20190;-78
2022/11/14 01:11:12;;;;;;;60.00;33.77;;;5.00;1.00;;;;;;5009211;28;20184;-78
2022/11/14 01:13:38;;;;;;;61.73;33.90;;;5.00;1.00;;;;;;5007997;28;20187;-79
2022/11/14 01:16:04;;;;;;;61.43;33.90;;;5.00;21.20;;;;;;5007038;28;21043;-78
2022/11/14 01:18:30;;;;;;;60.73;33.87;;;4.90;99.90;;;;;;5008417;28;20271;-80
2022/11/14 01:20:56;;;;;;;63.00;34.20;;;4.90;1.00;;;;;;5008957;28;20283;-79
2022/11/14 01:23:21;;;;;;;62.83;36.27;;;4.90;1.00;;;;;;5009102;28;20187;-79
2022/11/14 01:25:47;;;;;;;62.50;34.10;;;4.90;99.90;;;;;;5007299;28;20261;-78
2022/11/14 01:28:17;;;;;;;70.43;36.33;;;4.90;99.90;;;;;;5008796;28;20188;-79
2022/11/14 01:30:43;;;;;;;69.73;34.57;;;4.90;99.90;;;;;;5009354;28;20188;-79
2022/11/14 01:33:09;;;;;;;69.70;35.73;;;4.90;99.90;;;;;;5009466;28;20255;-79
2022/11/14 01:35:37;;;;;;;67.23;35.97;;;4.90;99.90;;;;;;5008200;28;20210;-78
2022/11/14 01:38:03;;;;;;;64.33;35.80;;;4.90;99.90;;;;;;5009009;28;20206;-78
2022/11/14 01:40:30;;;;;;;70.30;36.27;;;4.90;1.00;;;;;;5008504;28;20180;-78
2022/11/14 01:43:30;;;;;;;74.23;38.07;;;4.90;1.00;;;;;;5008867;28;20207;-79
2022/11/14 01:46:18;;;;;;;64.33;36.27;;;4.90;99.90;;;;;;4976636;28;20223;-78
2022/11/14 01:48:51;;;;;;;72.37;38.00;;;4.90;99.90;;;;;;5008163;28;21032;-79
2022/11/14 01:51:31;;;;;;;73.13;37.83;;;4.90;1.00;;;;;;5008758;28;20176;-78
2022/11/14 01:54:01;;;;;;;70.57;36.50;;;4.90;99.90;;;;;;5008913;28;20653;-78
2022/11/14 01:56:45;;;;;;;73.97;38.43;;;4.90;99.90;;;;;;5008731;28;20665;-78
2022/11/14 01:59:23;;;;;;;69.50;37.43;;;5.00;99.90;;;;;;5008406;28;20187;-79
2022/11/14 02:01:51;;;;;;;76.50;38.97;;;4.90;27.10;;;;;;5008684;28;20230;-79
2022/11/14 02:04:22;;;;;;;77.43;40.07;;;4.80;1.00;;;;;;5009506;28;20175;-79
2022/11/14 02:06:49;;;;;;;75.33;38.63;;;4.80;1.00;;;;;;5009581;28;20313;-79
2022/11/14 02:09:15;;;;;;;74.47;38.23;;;4.90;99.90;;;;;;5009283;28;21185;-78
2022/11/14 02:11:43;;;;;;;76.97;38.93;;;4.80;99.90;;;;;;5011623;28;20571;-79
2022/11/14 02:14:09;;;;;;;65.03;36.97;;;4.90;1.00;;;;;;5012835;28;20183;-80
2022/11/14 02:16:36;;;;;;;74.37;37.90;;;4.80;1.00;;;;;;5012346;28;20207;-79
2022/11/14 02:19:03;;;;;;;71.67;37.80;;;4.90;1.00;;;;;;5012978;28;20198;-79
2022/11/14 02:21:29;;;;;;;75.23;38.47;;;4.90;1.00;;;;;;5013041;28;20258;-79
2022/11/14 02:23:54;;;;;;;73.00;37.83;;;4.80;99.90;;;;;;5012083;28;20234;-79
2022/11/14 02:26:21;;;;;;;73.53;38.83;;;4.90;1.00;;;;;;5013477;28;20809;-79
2022/11/14 02:28:48;;;;;;;74.50;38.07;;;4.90;1.00;;;;;;5013286;28;20224;-79
2022/11/14 02:31:14;;;;;;;75.47;38.93;;;4.90;1.00;;;;;;5013503;28;20621;-79
2022/11/14 02:33:40;;;;;;;77.97;37.70;;;4.80;99.90;;;;;;5013515;28;20684;-78
2022/11/14 02:36:06;;;;;;;65.93;36.27;;;4.80;1.00;;;;;;5012343;28;20737;-78
2022/11/14 02:38:32;;;;;;;74.90;39.47;;;4.90;96.80;;;;;;5008883;28;20183;-78
2022/11/14 02:40:59;;;;;;;71.37;39.23;;;4.80;1.00;;;;;;5011620;28;20208;-79
2022/11/14 02:43:24;;;;;;;77.23;41.10;;;4.80;99.90;;;;;;5012479;28;20211;-79
2022/11/14 02:45:50;;;;;;;73.20;38.30;;;4.90;1.00;;;;;;5013363;28;20720;-79
2022/11/14 02:48:16;;;;;;;81.10;39.43;;;4.80;99.90;;;;;;5013255;28;20187;-79
2022/11/14 02:50:41;;;;;;;80.80;39.17;;;4.80;99.90;;;;;;5031130;28;20753;-79
2022/11/14 02:53:07;;;;;;;74.40;38.27;;;4.90;99.90;;;;;;5013549;28;20214;-78
2022/11/14 02:55:33;;;;;;;76.53;39.80;;;4.90;99.90;;;;;;5010088;28;20208;-78
2022/11/14 02:57:58;;;;;;;81.37;40.07;;;4.90;99.90;;;;;;5009666;28;20183;-79
2022/11/14 03:00:24;;;;;;;81.30;37.93;;;4.90;99.90;;;;;;5011388;28;20641;-79
2022/11/14 03:02:52;;;;;;;85.47;40.77;;;4.90;1.00;;;;;;5010500;28;20215;-77
2022/11/14 03:05:17;;;;;;;80.93;39.87;;;4.90;99.90;;;;;;5010740;28;20265;-79
2022/11/14 03:07:43;;;;;;;76.90;37.43;;;5.00;1.00;;;;;;5010267;28;20187;-79
2022/11/14 03:10:10;;;;;;;78.93;39.40;;;5.00;1.00;;;;;;5009949;28;20321;-79
2022/11/14 03:12:36;;;;;;;86.90;40.03;;;5.00;99.90;;;;;;5011168;28;20274;-80
2022/11/14 03:15:04;;;;;;;77.20;39.30;;;5.00;1.00;;;;;;5009589;28;20688;-77
2022/11/14 03:17:33;;;;;;;82.83;37.93;;;5.00;1.00;;;;;;5010330;28;20274;-79
2022/11/14 03:19:58;;;;;;;76.57;36.63;;;5.00;1.00;;;;;;5010601;28;20187;-78
2022/11/14 03:22:24;;;;;;;83.93;39.23;;;5.10;99.90;;;;;;5009558;28;20318;-78
2022/11/14 03:24:50;;;;;;;81.00;37.30;;;5.10;1.00;;;;;;5010499;28;20274;-79
2022/11/14 03:27:15;;;;;;;83.67;39.10;;;5.10;1.00;;;;;;5009239;28;20222;-78
2022/11/14 03:29:41;;;;;;;81.60;38.47;;;5.10;99.90;;;;;;5010069;28;20263;-79
2022/11/14 03:32:07;;;;;;;84.67;39.93;;;5.20;1.00;;;;;;5010573;28;20199;-77
2022/11/14 03:34:32;;;;;;;83.00;38.47;;;5.10;1.00;;;;;;5010294;28;20187;-78
2022/11/14 03:36:59;;;;;;;78.60;37.47;;;5.00;1.00;;;;;;5008252;28;20215;-79
2022/11/14 03:39:25;;;;;;;90.27;38.90;;;5.10;99.90;;;;;;5009282;28;20238;-77
2022/11/14 03:41:51;;;;;;;86.90;39.23;;;5.10;1.00;;;;;;5010135;28;20211;-79
2022/11/14 03:44:16;;;;;;;91.87;40.60;;;5.20;1.00;;;;;;5009345;28;20184;-78
2022/11/14 03:46:42;;;;;;;97.23;40.70;;;5.20;1.00;;;;;;5009324;28;20549;-79
2022/11/14 03:49:07;;;;;;;85.90;40.57;;;5.20;1.00;;;;;;5010923;28;20188;-79
2022/11/14 03:51:33;;;;;;;80.50;39.13;;;5.20;99.90;;;;;;5009226;28;20287;-78
2022/11/14 03:53:59;;;;;;;83.37;38.67;;;5.20;1.00;;;;;;5010913;28;20199;-78
2022/11/14 03:56:24;;;;;;;83.23;39.73;;;5.30;1.00;;;;;;5010386;28;21103;-78
2022/11/14 03:58:50;;;;;;;79.73;39.60;;;5.20;99.90;;;;;;5009247;28;20753;-79
2022/11/14 04:01:16;;;;;;;73.07;37.30;;;5.20;95.20;;;;;;5009299;28;20207;-79
2022/11/14 04:03:41;;;;;;;79.53;39.17;;;5.20;1.00;;;;;;5011325;28;20187;-79
2022/11/14 04:06:07;;;;;;;79.43;39.93;;;5.20;1.00;;;;;;5010674;28;20279;-79
2022/11/14 04:08:33;;;;;;;80.47;38.40;;;5.10;99.90;;;;;;5010417;28;20728;-78
2022/11/14 04:10:58;;;;;;;86.10;39.37;;;5.50;99.90;;;;;;5009965;28;20188;-79
2022/11/14 04:13:24;;;;;;;82.13;39.70;;;5.20;99.90;;;;;;5008824;28;20176;-79
2022/11/14 04:15:55;;;;;;;84.77;38.73;;;5.20;99.90;;;;;;5009363;28;20199;-77
2022/11/14 04:18:20;;;;;;;82.47;39.30;;;5.20;99.90;;;;;;5025432;28;20172;-79
2022/11/14 04:20:46;;;;;;;82.33;39.07;;;5.20;99.90;;;;;;5008695;28;20191;-79
2022/11/14 04:23:12;;;;;;;93.33;39.80;;;5.20;99.90;;;;;;5011130;28;20190;-79
2022/11/14 04:25:37;;;;;;;102.73;42.17;;;5.20;1.00;;;;;;5010115;28;20253;-79
2022/11/14 04:28:03;;;;;;;90.73;40.13;;;5.20;1.00;;;;;;5009210;28;20599;-78
2022/11/14 04:30:28;;;;;;;93.90;40.40;;;5.10;36.40;;;;;;5010425;28;20187;-79
2022/11/14 04:32:54;;;;;;;86.60;40.13;;;5.20;1.00;;;;;;5009256;28;20191;-79
2022/11/14 04:35:20;;;;;;;81.20;40.07;;;5.20;1.00;;;;;;5008952;28;20218;-79
2022/11/14 04:37:45;;;;;;;89.87;40.90;;;5.20;1.00;;;;;;5009959;28;20199;-79
2022/11/14 04:40:11;;;;;;;89.10;41.03;;;5.20;99.90;;;;;;5010972;28;20583;-77
2022/11/14 04:42:37;;;;;;;85.70;40.90;;;5.20;1.00;;;;;;5010057;28;20215;-80
2022/11/14 04:45:02;;;;;;;84.63;40.30;;;5.20;99.90;;;;;;5010172;28;20191;-77
2022/11/14 04:47:28;;;;;;;86.83;39.57;;;5.10;1.00;;;;;;5009124;28;20191;-79
2022/11/14 04:49:53;;;;;;;88.27;39.37;;;5.10;1.00;;;;;;5009026;28;20176;-78
2022/11/14 04:52:19;;;;;;;91.47;41.00;;;5.10;99.90;;;;;;5010200;28;20645;-78
2022/11/14 04:54:45;;;;;;;85.27;39.83;;;5.10;99.90;;;;;;5009350;28;20183;-79
2022/11/14 04:57:10;;;;;;;86.20;38.93;;;5.00;1.00;;;;;;5010497;28;20207;-78
2022/11/14 04:59:36;;;;;;;80.43;38.90;;;5.10;1.00;;;;;;5008788;28;20195;-78
2022/11/14 05:02:01;;;;;;;94.60;40.80;;;5.10;1.00;;;;;;5009727;28;20261;-79
2022/11/14 05:04:27;;;;;;;85.30;40.93;;;5.10;1.00;;;;;;5010454;28;20191;-79
2022/11/14 05:06:52;;;;;;;80.53;39.30;;;5.10;1.00;;;;;;5009925;28;20203;-78
2022/11/14 05:09:18;;;;;;;86.73;40.53;;;5.50;1.00;;;;;;5009768;28;20186;-79
2022/11/14 05:11:43;;;;;;;89.47;40.30;;;5.10;31.30;;;;;;5010014;28;20199;-79
2022/11/14 05:14:09;;;;;;;80.47;38.93;;;5.10;99.90;;;;;;5009647;28;20188;-81
2022/11/14 05:16:35;;;;;;;88.57;40.10;;;5.10;99.90;;;;;;5009503;28;21328;-78
2022/11/14 05:19:00;;;;;;;92.53;39.57;;;5.10;1.00;;;;;;5010746;28;20187;-79
2022/11/14 05:21:26;;;;;;;83.27;38.60;;;5.10;99.90;;;;;;5010915;28;20229;-79
2022/11/14 05:23:51;;;;;;;85.93;40.53;;;5.10;1.00;;;;;;5009942;28;20184;-78
2022/11/14 05:26:17;;;;;;;85.50;40.40;;;5.10;1.00;;;;;;5010418;28;20302;-79
2022/11/14 05:28:43;;;;;;;82.30;39.30;;;5.10;1.00;;;;;;5009292;28;20241;-78
2022/11/14 05:31:12;;;;;;;89.20;39.97;;;5.10;1.00;;;;;;5011660;28;20274;-79
2022/11/14 05:33:38;;;;;;;86.80;39.80;;;5.00;1.00;;;;;;5011176;28;20225;-79
2022/11/14 05:36:12;;;;;;;92.03;40.33;;;5.00;1.00;;;;;;5009237;28;20684;-78
2022/11/14 05:38:38;;;;;;;88.07;39.27;;;5.00;99.90;;;;;;5010910;28;20635;-79
2022/11/14 05:41:08;;;;;;;96.07;40.70;;;5.00;99.90;;;;;;5011010;28;20269;-78
2022/11/14 05:43:34;;;;;;;101.00;44.00;;;5.00;1.00;;;;;;5011421;28;20180;-79
2022/11/14 05:46:01;;;;;;;96.63;41.87;;;5.00;1.00;;;;;;5014102;28;20257;-79
2022/11/14 05:48:28;;;;;;;108.80;42.87;;;4.90;1.00;;;;;;5016834;28;20180;-80
2022/11/14 05:50:55;;;;;;;86.37;40.23;;;4.90;1.00;;;;;;5014371;28;20212;-78
2022/11/14 05:53:21;;;;;;;90.70;39.37;;;4.90;99.90;;;;;;5012089;28;20184;-79
2022/11/14 05:55:46;;;;;;;94.23;41.00;;;5.00;99.90;;;;;;5010608;28;20209;-78
2022/11/14 05:58:12;;;;;;;89.83;40.30;;;5.00;99.90;;;;;;5011808;28;20184;-78
2022/11/14 06:00:38;;;;;;;94.83;40.30;;;5.00;1.00;;;;;;5011749;28;20234;-79
2022/11/14 06:03:03;;;;;;;92.17;41.00;;;5.00;91.70;;;;;;5009920;28;20250;-79
2022/11/14 06:05:29;;;;;;;86.90;39.23;;;5.00;90.60;;;;;;5010117;28;20203;-79
2022/11/14 06:07:58;;;;;;;93.27;40.13;;;4.90;1.00;;;;;;5011544;28;20262;-77
2022/11/14 06:10:24;;;;;;;93.83;42.10;;;4.90;1.00;;;;;;5011406;28;20658;-78
2022/11/14 06:12:50;;;;;;;91.33;40.93;;;5.00;1.00;;;;;;5011486;28;20275;-78
2022/11/14 06:15:16;;;;;;;93.47;40.67;;;5.00;1.00;;;;;;5011508;28;20249;-79
2022/11/14 06:17:41;;;;;;;89.10;39.90;;;5.00;1.00;;;;;;5010359;28;20789;-78
2022/11/14 06:20:08;;;;;;;90.73;40.10;;;5.00;1.00;;;;;;5011689;28;20196;-79
2022/11/14 06:22:34;;;;;;;85.20;39.73;;;5.00;99.90;;;;;;5011598;28;20207;-78
2022/11/14 06:25:01;;;;;;;89.37;40.20;;;5.00;99.90;;;;;;5010185;28;20191;-79
2022/11/14 06:27:26;;;;;;;87.47;40.20;;;5.00;1.00;;;;;;5009863;28;20199;-79
2022/11/14 06:29:52;;;;;;;91.90;39.93;;;5.00;99.90;;;;;;5011673;28;20556;-77
2022/11/14 06:32:18;;;;;;;83.13;39.37;;;5.00;1.00;;;;;;5011327;28;20250;-80
2022/11/14 06:34:43;;;;;;;90.20;39.27;;;5.00;1.00;;;;;;5011845;28;20183;-78
2022/11/14 06:37:09;;;;;;;78.97;38.57;;;5.00;99.90;;;;;;5011589;28;20218;-78
2022/11/14 06:39:34;;;;;;;88.70;40.53;;;5.10;1.00;;;;;;5011320;28;20193;-79
2022/11/14 06:42:00;;;;;;;78.40;38.13;;;5.10;99.90;;;;;;5011059;28;20210;-77
2022/11/14 06:44:26;;;;;;;83.40;38.40;;;5.00;99.90;;;;;;5011663;28;20184;-78
2022/11/14 06:46:51;;;;;;;83.53;39.07;;;5.10;99.90;;;;;;5010165;28;20207;-79
2022/11/14 06:49:17;;;;;;;81.03;39.20;;;5.10;36.10;;;;;;5011678;28;20279;-79
2022/11/14 06:51:43;;;;;;;82.10;39.47;;;5.10;1.00;;;;;;5011211;28;20322;-78
2022/11/14 06:54:12;;;;;;;72.80;36.93;;;5.10;1.00;;;;;;5010714;28;20195;-79
2022/11/14 06:56:38;;;;;;;75.73;37.40;;;5.10;99.90;;;;;;5009893;28;20227;-79
2022/11/14 06:59:03;;;;;;;79.50;38.87;;;5.50;99.90;;;;;;5011745;28;20238;-78
2022/11/14 07:01:29;;;;;;;86.30;39.77;;;5.10;99.90;;;;;;5011053;28;20219;-78
2022/11/14 07:03:57;;;;;;;81.80;39.60;;;5.10;54.90;;;;;;5010502;28;20704;-78
2022/11/14 07:06:25;;;;;;;80.73;39.63;;;5.20;99.90;;;;;;5009432;28;20219;-78
2022/11/14 07:08:52;;;;;;;82.23;38.53;;;5.20;1.00;;;;;;5010341;28;20266;-78
2022/11/14 07:11:25;;;;;;;79.07;39.73;;;5.30;99.90;;;;;;5009018;28;20215;-79
2022/11/14 07:13:52;;;;;;;74.53;38.77;;;5.20;99.90;;;;;;5010949;28;20207;-79
2022/11/14 07:16:19;;;;;;;80.63;40.03;;;5.30;99.90;;;;;;5010378;28;20215;-78
2022/11/14 07:18:44;;;;;;;76.83;38.50;;;5.30;1.00;;;;;;5009477;28;20179;-78
2022/11/14 07:21:12;;;;;;;71.10;37.23;;;5.30;1.00;;;;;;5010756;28;20610;-79
2022/11/14 07:23:40;;;;;;;74.73;37.40;;;5.30;99.90;;;;;;5011141;28;20276;-77
2022/11/14 07:26:08;;;;;;;77.60;39.47;;;5.30;99.90;;;;;;5009265;28;20295;-78
2022/11/14 07:28:35;;;;;;;72.97;36.47;;;5.30;99.90;;;;;;5025711;28;20270;-78
2022/11/14 07:31:09;;;;;;;71.87;36.13;;;5.30;99.90;;;;;;5010742;28;20245;-77
2022/11/14 07:33:35;;;;;;;76.47;37.17;;;5.30;99.90;;;;;;5009710;28;20183;-78
2022/11/14 07:36:01;;;;;;;72.63;37.30;;;5.30;93.30;;;;;;5010604;28;20211;-79
2022/11/14 07:38:26;;;;;;;70.63;36.10;;;5.40;45.00;;;;;;5010255;28;20729;-79
2022/11/14 07:40:57;;;;;;;65.83;34.50;;;5.40;1.00;;;;;;5010563;28;20286;-78
2022/11/14 07:43:23;;;;;;;66.70;36.07;;;5.30;1.00;;;;;;5009622;28;20893;-79
2022/11/14 07:45:49;;;;;;;72.10;36.83;;;5.40;1.00;;;;;;5010612;28;20203;-78
2022/11/14 07:48:15;;;;;;;71.53;35.43;;;5.40;1.00;;;;;;5010034;28;20623;-78
2022/11/14 07:50:41;;;;;;;73.37;36.97;;;5.30;1.00;;;;;;5012213;28;20187;-78
2022/11/14 07:53:07;;;;;;;72.97;36.97;;;5.30;1.00;;;;;;5012362;28;20959;-78
2022/11/14 07:55:37;;;;;;;69.20;35.27;;;5.30;1.00;;;;;;5012325;28;20647;-78
2022/11/14 07:58:03;;;;;;;64.30;34.53;;;5.40;1.00;;;;;;5025923;28;20636;-77
2022/11/14 08:00:29;;;;;;;67.47;34.87;;;5.40;99.90;;;;;;5009653;28;20188;-79
2022/11/14 08:02:55;;;;;;;71.73;34.63;;;5.30;99.90;;;;;;5010023;28;20710;-78
2022/11/14 08:05:21;;;;;;;65.30;35.40;;;5.30;99.90;;;;;;5007322;28;20207;-79
2022/11/14 08:07:50;;;;;;;66.93;35.13;;;5.40;99.90;;;;;;5007057;28;20198;-79
2022/11/14 08:10:17;;;;;;;57.57;32.27;;;5.50;99.90;;;;;;5007166;28;20609;-81
2022/11/14 08:12:43;;;;;;;66.80;36.17;;;5.40;99.90;;;;;;5005830;28;20188;-79
2022/11/14 08:15:10;;;;;;;61.27;34.27;;;5.50;99.90;;;;;;5003835;28;20191;-79
2022/11/14 08:17:36;;;;;;;64.83;33.13;;;5.50;74.30;;;;;;5002866;28;20253;-80
2022/11/14 08:20:03;;;;;;;60.33;32.37;;;5.60;1.00;;;;;;5003678;28;20187;-79
2022/11/14 08:22:29;;;;;;;65.40;33.67;;;5.60;1.00;;;;;;5022400;28;20325;-80
2022/11/14 08:24:55;;;;;;;62.80;33.57;;;5.80;1.00;;;;;;5007763;28;20206;-78
2022/11/14 08:27:21;;;;;;;60.90;32.93;;;5.60;1.00;;;;;;5004205;28;20211;-78
2022/11/14 08:29:47;;;;;;;66.27;33.77;;;5.70;1.00;;;;;;5005719;28;20229;-78
2022/11/14 08:32:12;;;;;;;56.60;32.43;;;5.60;1.00;;;;;;5008718;28;20211;-78
2022/11/14 08:34:38;;;;;;;63.07;33.83;;;5.70;1.00;;;;;;5007677;28;20627;-78
2022/11/14 08:37:03;;;;;;;62.10;34.17;;;5.60;1.00;;;;;;5005518;28;20291;-78
2022/11/14 08:39:29;;;;;;;61.30;34.47;;;5.70;1.00;;;;;;5006836;28;20219;-78
2022/11/14 08:41:54;;;;;;;56.63;32.67;;;5.70;1.00;;;;;;5009075;28;20211;-80
2022/11/14 08:44:20;;;;;;;62.57;34.67;;;5.70;1.00;;;;;;5008788;28;20211;-78
2022/11/14 08:46:46;;;;;;;59.60;35.40;;;5.70;1.00;;;;;;5008669;28;20212;-78
2022/11/14 08:49:11;;;;;;;63.07;34.77;;;5.70;1.00;;;;;;5006632;28;20279;-77
2022/11/14 08:51:37;;;;;;;59.07;34.77;;;5.70;1.00;;;;;;5006774;28;20192;-79
2022/11/14 08:54:02;;;;;;;58.87;34.47;;;5.80;1.00;;;;;;5008226;28;20192;-77
2022/11/14 08:56:28;;;;;;;63.03;36.43;;;5.70;1.00;;;;;;5007340;28;20265;-78
2022/11/14 08:58:54;;;;;;;62.27;34.57;;;5.70;99.90;;;;;;5007775;28;20199;-77
2022/11/14 09:01:19;;;;;;;55.13;34.13;;;5.70;1.00;;;;;;5006803;28;20235;-79
2022/11/14 09:03:45;;;;;;;54.60;32.63;;;5.70;1.00;;;;;;5008009;28;20664;-78
2022/11/14 09:06:10;;;;;;;53.33;32.07;;;5.80;1.00;;;;;;5007007;28;20203;-79
2022/11/14 09:08:36;;;;;;;52.13;31.83;;;5.80;99.90;;;;;;5003869;28;20186;-78
2022/11/14 09:11:04;;;;;;;54.73;36.80;;;5.90;99.90;;;;;;5004345;28;20191;-79
2022/11/14 09:13:32;;;;;;;57.73;34.27;;;5.90;99.90;;;;;;5003319;28;20582;-79
2022/11/14 09:15:58;;;;;;;51.53;32.73;;;5.90;99.90;;;;;;5005047;28;20245;-78
2022/11/14 09:18:23;;;;;;;48.27;31.80;;;5.90;99.90;;;;;;5002309;28;20203;-77
2022/11/14 09:20:49;;;;;;;287.03;137.87;;;6.00;99.90;;;;;;4999243;28;20187;-78
2022/11/14 09:23:15;;;;;;;80.13;58.83;;;6.10;99.90;;;;;;5002001;28;20219;-79
2022/11/14 09:25:40;;;;;;;58.67;42.17;;;6.00;99.90;;;;;;5005818;28;20207;-78
2022/11/14 09:28:07;;;;;;;52.10;37.80;;;6.10;99.90;;;;;;5006841;28;20226;-78
2022/11/14 09:30:34;;;;;;;50.43;33.73;;;6.10;99.90;;;;;;5006516;28;20190;-80
2022/11/14 09:33:00;;;;;;;58.07;39.73;;;6.30;99.90;;;;;;5006585;28;20195;-79
2022/11/14 09:35:27;;;;;;;52.23;35.07;;;6.10;99.90;;;;;;5006233;28;20203;-78
2022/11/14 09:38:04;;;;;;;51.43;35.33;;;6.10;99.90;;;;;;5004714;28;20195;-77
2022/11/14 09:40:53;;;;;;;52.83;38.07;;;6.10;99.90;;;;;;5005495;28;20199;-78
2022/11/14 09:43:22;;;;;;;52.23;39.27;;;6.20;99.90;;;;;;4990251;28;20311;-79
2022/11/14 09:45:51;;;;;;;52.43;39.63;;;6.20;99.90;;;;;;5006196;28;20242;-79
2022/11/14 09:48:24;;;;;;;48.43;35.90;;;6.20;99.90;;;;;;5004488;28;20654;-78
2022/11/14 09:51:08;;;;;;;54.53;40.73;;;6.20;99.90;;;;;;5005493;28;20271;-78
2022/11/14 09:53:41;;;;;;;57.13;42.10;;;6.20;99.90;;;;;;5005805;28;20230;-77
2022/11/14 09:56:16;;;;;;;63.70;48.87;;;6.20;99.90;;;;;;5006051;28;20261;-76
2022/11/14 09:58:41;;;;;;;56.67;40.13;;;6.20;99.90;;;;;;5005804;28;20186;-78
2022/11/14 10:01:16;;;;;;;56.63;47.23;;;6.10;99.90;;;;;;5008939;28;20405;-80
2022/11/14 10:04:19;;;;;;;46.37;32.23;;;6.20;99.90;;;;;;5006221;28;20187;-78
2022/11/14 10:07:03;;;;;;;47.37;32.77;;;6.30;99.90;;;;;;5007825;28;20720;-78
2022/11/14 10:09:41;;;;;;;44.27;29.67;;;6.30;99.90;;;;;;5007394;28;20187;-80
2022/11/14 10:12:16;;;;;;;42.87;29.33;;;6.20;99.90;;;;;;5006701;28;20308;-81
2022/11/14 10:15:10;;;;;;;45.53;30.80;;;6.20;99.90;;;;;;5006032;28;20183;-78
2022/11/14 10:17:56;;;;;;;44.50;32.00;;;6.20;99.90;;;;;;5006175;28;21041;-80
2022/11/14 10:20:45;;;;;;;44.60;30.43;;;6.40;99.90;;;;;;5006758;28;20184;-81
2022/11/14 10:23:38;;;;;;;41.50;29.50;;;6.80;99.90;;;;;;5007239;28;20235;-81
2022/11/14 10:26:10;;;;;;;40.70;31.23;;;6.60;99.90;;;;;;5005783;28;20207;-80
2022/11/14 10:28:41;;;;;;;41.60;30.77;;;6.50;99.90;;;;;;5004786;28;20703;-80
2022/11/14 10:31:36;;;;;;;57.27;42.17;;;6.40;99.90;;;;;;5005653;28;20202;-79
2022/11/14 10:34:31;;;;;;;46.67;35.03;;;6.40;99.90;;;;;;5008342;28;20195;-80
2022/11/14 10:37:24;;;;;;;41.67;30.30;;;6.30;99.90;;;;;;5009604;28;20317;-81
2022/11/14 10:39:56;;;;;;;52.83;39.70;;;6.40;99.90;;;;;;5006362;28;20628;-80
2022/11/14 10:42:30;;;;;;;42.53;30.27;;;6.50;99.90;;;;;;5007389;28;20203;-81
2022/11/14 10:44:59;;;;;;;39.67;28.63;;;6.60;99.90;;;;;;5003729;28;20187;-79
2022/11/14 10:47:35;;;;;;;43.80;29.37;;;6.70;99.90;;;;;;5006673;28;20184;-80
2022/11/14 10:50:19;;;;;;;44.13;34.70;;;6.80;99.90;;;;;;5005331;28;20191;-78
2022/11/14 10:52:46;;;;;;;41.87;33.47;;;6.70;99.90;;;;;;5004665;28;20198;-78
2022/11/14 10:55:16;;;;;;;42.77;32.23;;;6.70;99.90;;;;;;5006663;28;20212;-78
2022/11/14 10:57:45;;;;;;;46.00;33.77;;;6.60;99.90;;;;;;5007236;28;20250;-79
2022/11/14 11:00:18;;;;;;;45.17;32.90;;;6.60;99.90;;;;;;5008140;28;20190;-81
2022/11/14 11:02:50;;;;;;;51.47;40.53;;;6.60;99.90;;;;;;5006849;28;20282;-80
2022/11/14 11:05:19;;;;;;;38.90;30.70;;;6.80;99.90;;;;;;5007820;28;20208;-81
2022/11/14 11:13:35;;;;;;;37.97;30.53;;;6.90;99.90;;;;;;5008036;28;20277;-80
2022/11/14 11:16:03;;;;;;;43.10;32.67;;;6.70;99.90;;;;;;5005417;28;20703;-81
2022/11/14 11:18:32;;;;;;;39.57;31.57;;;6.70;99.90;;;;;;5006916;28;20184;-80
2022/11/14 11:21:05;;;;;;;50.07;41.60;;;6.80;99.90;;;;;;5005985;28;20318;-79
2022/11/14 11:23:31;;;;;;;44.07;35.07;;;6.90;99.90;;;;;;5007589;28;20222;-80
2022/11/14 11:26:06;;;;;;;39.37;31.47;;;7.10;99.90;;;;;;5005833;28;20243;-80
2022/11/14 11:28:33;;;;;;;37.20;30.13;;;7.10;99.90;;;;;;5006811;28;20441;-79
2022/11/14 11:31:04;;;;;;;44.27;35.40;;;7.20;99.90;;;;;;5005326;28;20615;-78
2022/11/14 11:33:33;;;;;;;38.17;29.93;;;7.10;99.90;;;;;;5007033;28;20210;-80
2022/11/14 11:36:02;;;;;;;44.13;35.20;;;7.60;99.90;;;;;;5007309;28;20219;-80
2022/11/14 11:38:30;;;;;;;40.47;31.03;;;7.30;99.90;;;;;;5006415;28;20548;-79
2022/11/14 11:41:14;;;;;;;43.57;36.50;;;7.40;99.90;;;;;;5008695;28;20225;-79
2022/11/14 11:44:14;;;;;;;38.23;32.73;;;7.50;99.90;;;;;;5007603;28;20187;-79
2022/11/14 11:46:49;;;;;;;34.53;28.57;;;7.60;99.90;;;;;;4991150;28;20759;-78
2022/11/14 11:49:41;;;;;;;34.73;28.60;;;7.70;99.90;;;;;;5006163;28;20206;-79
2022/11/14 11:52:25;;;;;;;33.50;28.23;;;7.80;99.80;;;;;;5003168;28;20680;-78
2022/11/14 11:55:13;;;;;;;35.83;31.50;;;7.90;99.90;;;;;;5006311;28;20643;-80
2022/11/14 11:57:49;;;;;;;34.20;27.37;;;7.90;99.90;;;;;;5020761;28;20211;-78
2022/11/14 12:00:20;;;;;;;39.57;34.70;;;7.90;99.90;;;;;;5004189;28;20182;-80
2022/11/14 12:02:49;;;;;;;33.30;26.13;;;8.00;99.90;;;;;;5005891;28;20218;-81
2022/11/14 12:05:43;;;;;;;33.33;28.80;;;8.10;99.90;;;;;;5004018;28;20222;-79
2022/11/14 12:08:21;;;;;;;34.77;28.77;;;8.30;88.10;;;;;;5003461;28;20172;-77
2022/11/14 12:10:48;;;;;;;33.33;27.43;;;8.30;68.60;;;;;;5001326;28;20215;-81
2022/11/14 12:13:43;;;;;;;30.07;24.83;;;8.40;59.20;;;;;;5002280;28;20942;-80
2022/11/14 12:16:41;;;;;;;37.77;30.43;;;8.50;38.30;;;;;;5000990;28;20218;-79
2022/11/14 12:19:30;;;;;;;39.80;32.30;;;8.60;36.50;;;;;;4994862;28;20199;-80
2022/11/14 12:22:15;;;;;;;34.30;27.43;;;8.50;38.70;;;;;;5000891;28;20207;-79
2022/11/14 12:25:00;;;;;;;55.00;39.87;;;8.50;31.90;;;;;;5000107;28;20197;-80
2022/11/14 12:27:43;;;;;;;42.23;31.10;;;8.50;34.80;;;;;;4989769;28;20199;-79
2022/11/14 12:30:15;;;;;;;56.23;40.17;;;8.40;31.70;;;;;;5003702;28;20206;-79
2022/11/14 12:32:54;;;;;;;45.57;34.80;;;8.50;37.00;;;;;;5006529;28;20176;-79
2022/11/14 12:35:21;;;;;;;77.07;52.60;;;8.60;19.40;;;;;;5006143;28;20239;-79
2022/11/14 12:37:50;;;;;;;38.13;30.17;;;8.60;19.80;;;;;;5005769;28;20179;-80
2022/11/14 12:40:34;;;;;;;30.03;24.03;;;8.60;17.50;;;;;;5021051;28;20298;-79
2022/11/14 12:43:01;;;;;;;26.50;22.83;;;8.90;11.50;;;;;;5005678;28;20193;-79
2022/11/14 12:45:39;;;;;;;28.43;23.37;;;9.10;14.00;;;;;;5005313;28;20571;-79
2022/11/14 12:48:19;;;;;;;29.33;23.10;;;8.80;12.90;;;;;;5005271;28;20187;-80
2022/11/14 12:50:46;;;;;;;29.20;23.57;;;8.80;13.30;;;;;;5003856;28;20296;-80
2022/11/14 12:53:36;;;;;;;34.40;22.67;;;8.80;9.50;;;;;;5004203;28;20261;-79
2022/11/14 12:56:15;;;;;;;32.47;22.07;;;8.90;5.00;;;;;;5004861;28;20207;-80